sensor_id;sensor_type;location;lat;lon;timestamp;P1;durP1;ratioP1;P2;durP2;ratioP2
73382;SDS011;61600;48.126;11.542;2022-07-21T00:00:39;9.77;;;4.13;;
73382;SDS011;61600;48.126;11.542;2022-07-21T00:03:04;6.47;;;4.00;;
73382;SDS011;61600;48.126;11.542;2022-07-21T00:05:30;7.05;;;4.00;;
73382;SDS011;61600;48.126;11.542;2022-07-21T00:07:56;5.85;;;3.97;;
73382;SDS011;61600;48.126;11.542;2022-07-21T00:10:22;11.13;;;4.00;;
73382;SDS011;61600;48.126;11.542;2022-07-21T00:12:50;7.28;;;4.03;;
73382;SDS011;61600;48.126;11.542;2022-07-21T00:15:16;9.15;;;3.85;;
73382;SDS011;61600;48.126;11.542;2022-07-21T00:17:43;7.30;;;4.47;;
73382;SDS011;61600;48.126;11.542;2022-07-21T00:20:09;8.00;;;3.60;;
73382;SDS011;61600;48.126;11.542;2022-07-21T00:22:36;8.35;;;3.97;;
73382;SDS011;61600;48.126;11.542;2022-07-21T00:25:04;8.63;;;4.20;;
73382;SDS011;61600;48.126;11.542;2022-07-21T00:27:31;8.50;;;4.82;;
73382;SDS011;61600;48.126;11.542;2022-07-21T00:29:56;6.22;;;4.20;;
73382;SDS011;61600;48.126;11.542;2022-07-21T00:32:22;10.00;;;3.75;;
73382;SDS011;61600;48.126;11.542;2022-07-21T00:34:48;9.18;;;4.38;;
73382;SDS011;61600;48.126;11.542;2022-07-21T00:37:13;8.38;;;4.25;;
73382;SDS011;61600;48.126;11.542;2022-07-21T00:39:39;11.02;;;4.10;;
73382;SDS011;61600;48.126;11.542;2022-07-21T00:42:04;6.72;;;3.90;;
73382;SDS011;61600;48.126;11.542;2022-07-21T00:44:30;7.40;;;3.95;;
73382;SDS011;61600;48.126;11.542;2022-07-21T00:46:56;9.02;;;3.63;;
73382;SDS011;61600;48.126;11.542;2022-07-21T00:49:22;7.40;;;3.72;;
73382;SDS011;61600;48.126;11.542;2022-07-21T00:51:49;7.97;;;4.40;;
73382;SDS011;61600;48.126;11.542;2022-07-21T00:54:16;6.70;;;3.90;;
73382;SDS011;61600;48.126;11.542;2022-07-21T00:56:43;7.15;;;5.20;;
73382;SDS011;61600;48.126;11.542;2022-07-21T00:59:10;5.72;;;3.97;;
73382;SDS011;61600;48.126;11.542;2022-07-21T01:01:35;7.82;;;4.60;;
73382;SDS011;61600;48.126;11.542;2022-07-21T01:04:01;6.88;;;4.57;;
73382;SDS011;61600;48.126;11.542;2022-07-21T01:06:26;7.88;;;4.70;;
73382;SDS011;61600;48.126;11.542;2022-07-21T01:08:52;6.95;;;4.55;;
73382;SDS011;61600;48.126;11.542;2022-07-21T01:11:19;7.30;;;4.18;;
73382;SDS011;61600;48.126;11.542;2022-07-21T01:13:46;8.90;;;4.45;;
73382;SDS011;61600;48.126;11.542;2022-07-21T01:16:12;5.43;;;4.30;;
73382;SDS011;61600;48.126;11.542;2022-07-21T01:18:39;9.93;;;5.05;;
73382;SDS011;61600;48.126;11.542;2022-07-21T01:21:12;6.13;;;4.13;;
73382;SDS011;61600;48.126;11.542;2022-07-21T01:24:00;8.38;;;4.75;;
73382;SDS011;61600;48.126;11.542;2022-07-21T01:26:27;10.10;;;5.25;;
73382;SDS011;61600;48.126;11.542;2022-07-21T01:28:54;10.23;;;5.60;;
73382;SDS011;61600;48.126;11.542;2022-07-21T01:31:20;10.57;;;5.80;;
73382;SDS011;61600;48.126;11.542;2022-07-21T01:33:46;10.77;;;5.85;;
73382;SDS011;61600;48.126;11.542;2022-07-21T01:36:12;8.50;;;5.75;;
73382;SDS011;61600;48.126;11.542;2022-07-21T01:38:37;10.15;;;6.43;;
73382;SDS011;61600;48.126;11.542;2022-07-21T01:41:21;10.60;;;5.93;;
73382;SDS011;61600;48.126;11.542;2022-07-21T01:44:02;8.05;;;5.22;;
73382;SDS011;61600;48.126;11.542;2022-07-21T01:46:31;10.52;;;5.95;;
73382;SDS011;61600;48.126;11.542;2022-07-21T01:48:58;9.63;;;5.68;;
73382;SDS011;61600;48.126;11.542;2022-07-21T01:51:24;12.98;;;6.45;;
73382;SDS011;61600;48.126;11.542;2022-07-21T01:53:50;9.23;;;5.35;;
73382;SDS011;61600;48.126;11.542;2022-07-21T01:56:18;9.57;;;6.38;;
73382;SDS011;61600;48.126;11.542;2022-07-21T01:58:46;10.57;;;5.80;;
73382;SDS011;61600;48.126;11.542;2022-07-21T02:04:36;11.38;;;6.22;;
73382;SDS011;61600;48.126;11.542;2022-07-21T02:07:01;8.65;;;6.32;;
73382;SDS011;61600;48.126;11.542;2022-07-21T02:09:27;8.65;;;6.07;;
73382;SDS011;61600;48.126;11.542;2022-07-21T02:11:52;9.82;;;6.45;;
73382;SDS011;61600;48.126;11.542;2022-07-21T02:14:18;11.65;;;6.28;;
73382;SDS011;61600;48.126;11.542;2022-07-21T02:16:44;12.70;;;5.97;;
73382;SDS011;61600;48.126;11.542;2022-07-21T02:19:09;11.05;;;6.22;;
73382;SDS011;61600;48.126;11.542;2022-07-21T02:21:35;11.68;;;6.30;;
73382;SDS011;61600;48.126;11.542;2022-07-21T02:24:01;8.32;;;5.60;;
73382;SDS011;61600;48.126;11.542;2022-07-21T02:26:26;9.10;;;6.03;;
73382;SDS011;61600;48.126;11.542;2022-07-21T02:28:52;10.13;;;5.20;;
73382;SDS011;61600;48.126;11.542;2022-07-21T02:31:17;11.68;;;5.93;;
73382;SDS011;61600;48.126;11.542;2022-07-21T02:33:43;9.70;;;5.80;;
73382;SDS011;61600;48.126;11.542;2022-07-21T02:36:09;8.45;;;5.43;;
73382;SDS011;61600;48.126;11.542;2022-07-21T02:38:35;7.47;;;5.45;;
73382;SDS011;61600;48.126;11.542;2022-07-21T02:41:01;9.18;;;5.07;;
73382;SDS011;61600;48.126;11.542;2022-07-21T02:43:28;8.02;;;5.38;;
73382;SDS011;61600;48.126;11.542;2022-07-21T02:45:54;11.30;;;5.63;;
73382;SDS011;61600;48.126;11.542;2022-07-21T02:48:19;8.30;;;5.20;;
73382;SDS011;61600;48.126;11.542;2022-07-21T02:50:45;9.73;;;5.78;;
73382;SDS011;61600;48.126;11.542;2022-07-21T02:53:12;8.05;;;5.40;;
73382;SDS011;61600;48.126;11.542;2022-07-21T02:55:39;8.70;;;5.60;;
73382;SDS011;61600;48.126;11.542;2022-07-21T02:58:15;8.20;;;5.78;;
73382;SDS011;61600;48.126;11.542;2022-07-21T03:00:53;7.88;;;5.28;;
73382;SDS011;61600;48.126;11.542;2022-07-21T03:03:24;8.70;;;5.90;;
73382;SDS011;61600;48.126;11.542;2022-07-21T03:05:51;9.23;;;5.82;;
73382;SDS011;61600;48.126;11.542;2022-07-21T03:08:17;8.52;;;6.28;;
73382;SDS011;61600;48.126;11.542;2022-07-21T03:10:44;7.90;;;5.72;;
73382;SDS011;61600;48.126;11.542;2022-07-21T03:13:10;9.32;;;6.45;;
73382;SDS011;61600;48.126;11.542;2022-07-21T03:15:36;8.93;;;6.18;;
73382;SDS011;61600;48.126;11.542;2022-07-21T03:18:02;11.55;;;6.50;;
73382;SDS011;61600;48.126;11.542;2022-07-21T03:20:29;11.75;;;6.82;;
73382;SDS011;61600;48.126;11.542;2022-07-21T03:22:56;12.23;;;6.38;;
73382;SDS011;61600;48.126;11.542;2022-07-21T03:25:22;11.32;;;6.80;;
73382;SDS011;61600;48.126;11.542;2022-07-21T03:27:48;9.70;;;6.85;;
73382;SDS011;61600;48.126;11.542;2022-07-21T03:30:14;12.30;;;7.40;;
73382;SDS011;61600;48.126;11.542;2022-07-21T03:35:07;10.50;;;6.93;;
73382;SDS011;61600;48.126;11.542;2022-07-21T03:37:39;9.57;;;6.88;;
73382;SDS011;61600;48.126;11.542;2022-07-21T03:40:13;8.60;;;6.03;;
73382;SDS011;61600;48.126;11.542;2022-07-21T03:42:42;10.35;;;7.10;;
73382;SDS011;61600;48.126;11.542;2022-07-21T03:47:34;8.63;;;6.60;;
73382;SDS011;61600;48.126;11.542;2022-07-21T03:50:00;10.02;;;7.40;;
73382;SDS011;61600;48.126;11.542;2022-07-21T03:52:25;10.75;;;7.40;;
73382;SDS011;61600;48.126;11.542;2022-07-21T03:54:51;8.75;;;6.57;;
73382;SDS011;61600;48.126;11.542;2022-07-21T03:57:43;11.90;;;8.05;;
73382;SDS011;61600;48.126;11.542;2022-07-21T04:00:22;12.43;;;7.85;;
73382;SDS011;61600;48.126;11.542;2022-07-21T04:02:50;12.13;;;7.97;;
73382;SDS011;61600;48.126;11.542;2022-07-21T04:05:17;10.10;;;7.20;;
73382;SDS011;61600;48.126;11.542;2022-07-21T04:07:44;10.80;;;8.10;;
73382;SDS011;61600;48.126;11.542;2022-07-21T04:10:13;13.00;;;7.38;;
73382;SDS011;61600;48.126;11.542;2022-07-21T04:12:40;13.15;;;8.15;;
73382;SDS011;61600;48.126;11.542;2022-07-21T04:15:07;10.95;;;7.85;;
73382;SDS011;61600;48.126;11.542;2022-07-21T04:17:34;11.35;;;8.32;;
73382;SDS011;61600;48.126;11.542;2022-07-21T04:20:01;11.38;;;7.32;;
73382;SDS011;61600;48.126;11.542;2022-07-21T04:22:27;12.40;;;8.40;;
73382;SDS011;61600;48.126;11.542;2022-07-21T04:24:52;12.55;;;8.27;;
73382;SDS011;61600;48.126;11.542;2022-07-21T04:27:18;13.23;;;8.95;;
73382;SDS011;61600;48.126;11.542;2022-07-21T04:29:43;15.60;;;8.75;;
73382;SDS011;61600;48.126;11.542;2022-07-21T04:32:09;11.65;;;8.80;;
73382;SDS011;61600;48.126;11.542;2022-07-21T04:34:35;13.45;;;8.60;;
73382;SDS011;61600;48.126;11.542;2022-07-21T04:37:00;13.23;;;9.27;;
73382;SDS011;61600;48.126;11.542;2022-07-21T04:39:26;14.68;;;8.63;;
73382;SDS011;61600;48.126;11.542;2022-07-21T04:41:51;12.32;;;8.70;;
73382;SDS011;61600;48.126;11.542;2022-07-21T04:44:17;11.35;;;8.43;;
73382;SDS011;61600;48.126;11.542;2022-07-21T04:46:42;12.23;;;9.32;;
73382;SDS011;61600;48.126;11.542;2022-07-21T04:49:08;14.18;;;9.65;;
73382;SDS011;61600;48.126;11.542;2022-07-21T04:51:34;14.95;;;8.73;;
73382;SDS011;61600;48.126;11.542;2022-07-21T04:54:00;13.88;;;8.85;;
73382;SDS011;61600;48.126;11.542;2022-07-21T04:56:26;12.70;;;8.38;;
73382;SDS011;61600;48.126;11.542;2022-07-21T04:58:51;15.27;;;10.52;;
73382;SDS011;61600;48.126;11.542;2022-07-21T05:01:17;13.75;;;9.48;;
73382;SDS011;61600;48.126;11.542;2022-07-21T05:03:43;12.32;;;8.55;;
73382;SDS011;61600;48.126;11.542;2022-07-21T05:06:10;14.50;;;9.95;;
73382;SDS011;61600;48.126;11.542;2022-07-21T05:08:36;13.00;;;8.90;;
73382;SDS011;61600;48.126;11.542;2022-07-21T05:11:01;13.63;;;9.13;;
73382;SDS011;61600;48.126;11.542;2022-07-21T05:13:27;13.30;;;9.65;;
73382;SDS011;61600;48.126;11.542;2022-07-21T05:15:53;14.70;;;10.20;;
73382;SDS011;61600;48.126;11.542;2022-07-21T05:18:19;14.60;;;9.93;;
73382;SDS011;61600;48.126;11.542;2022-07-21T05:20:44;11.20;;;8.02;;
73382;SDS011;61600;48.126;11.542;2022-07-21T05:23:10;14.50;;;9.77;;
73382;SDS011;61600;48.126;11.542;2022-07-21T05:25:36;11.90;;;9.35;;
73382;SDS011;61600;48.126;11.542;2022-07-21T05:28:02;14.82;;;9.45;;
73382;SDS011;61600;48.126;11.542;2022-07-21T05:30:30;12.80;;;9.40;;
73382;SDS011;61600;48.126;11.542;2022-07-21T05:32:55;16.35;;;11.07;;
73382;SDS011;61600;48.126;11.542;2022-07-21T05:35:21;16.73;;;10.45;;
73382;SDS011;61600;48.126;11.542;2022-07-21T05:37:47;14.05;;;10.10;;
73382;SDS011;61600;48.126;11.542;2022-07-21T05:40:13;16.60;;;9.70;;
73382;SDS011;61600;48.126;11.542;2022-07-21T05:45:07;15.98;;;10.50;;
73382;SDS011;61600;48.126;11.542;2022-07-21T05:47:33;12.73;;;9.63;;
73382;SDS011;61600;48.126;11.542;2022-07-21T05:50:00;14.30;;;10.00;;
73382;SDS011;61600;48.126;11.542;2022-07-21T05:52:25;13.73;;;9.95;;
73382;SDS011;61600;48.126;11.542;2022-07-21T05:54:51;14.38;;;9.98;;
73382;SDS011;61600;48.126;11.542;2022-07-21T05:57:17;15.77;;;10.13;;
73382;SDS011;61600;48.126;11.542;2022-07-21T06:02:10;16.95;;;11.23;;
73382;SDS011;61600;48.126;11.542;2022-07-21T06:04:35;13.80;;;9.68;;
73382;SDS011;61600;48.126;11.542;2022-07-21T06:07:01;14.52;;;10.30;;
73382;SDS011;61600;48.126;11.542;2022-07-21T06:09:27;14.55;;;10.32;;
73382;SDS011;61600;48.126;11.542;2022-07-21T06:11:53;16.30;;;10.52;;
73382;SDS011;61600;48.126;11.542;2022-07-21T06:16:45;14.73;;;10.27;;
73382;SDS011;61600;48.126;11.542;2022-07-21T06:19:11;14.50;;;10.10;;
73382;SDS011;61600;48.126;11.542;2022-07-21T06:21:37;19.00;;;10.43;;
73382;SDS011;61600;48.126;11.542;2022-07-21T06:24:03;15.05;;;10.05;;
73382;SDS011;61600;48.126;11.542;2022-07-21T06:26:29;15.25;;;10.30;;
73382;SDS011;61600;48.126;11.542;2022-07-21T06:28:54;13.85;;;9.07;;
73382;SDS011;61600;48.126;11.542;2022-07-21T06:31:20;13.63;;;10.18;;
73382;SDS011;61600;48.126;11.542;2022-07-21T06:33:46;20.83;;;10.63;;
73382;SDS011;61600;48.126;11.542;2022-07-21T06:36:12;14.30;;;9.70;;
73382;SDS011;61600;48.126;11.542;2022-07-21T06:38:37;13.82;;;10.00;;
73382;SDS011;61600;48.126;11.542;2022-07-21T06:41:03;16.50;;;10.98;;
73382;SDS011;61600;48.126;11.542;2022-07-21T06:43:29;14.85;;;11.25;;
73382;SDS011;61600;48.126;11.542;2022-07-21T06:45:55;19.08;;;11.95;;
73382;SDS011;61600;48.126;11.542;2022-07-21T06:48:22;16.02;;;12.43;;
73382;SDS011;61600;48.126;11.542;2022-07-21T06:50:48;16.60;;;11.68;;
73382;SDS011;61600;48.126;11.542;2022-07-21T06:53:14;17.92;;;12.05;;
73382;SDS011;61600;48.126;11.542;2022-07-21T06:55:40;16.45;;;11.98;;
73382;SDS011;61600;48.126;11.542;2022-07-21T06:58:12;17.83;;;12.38;;
73382;SDS011;61600;48.126;11.542;2022-07-21T07:00:41;16.58;;;12.57;;
73382;SDS011;61600;48.126;11.542;2022-07-21T07:03:08;20.23;;;12.27;;
73382;SDS011;61600;48.126;11.542;2022-07-21T07:05:34;17.92;;;11.73;;
73382;SDS011;61600;48.126;11.542;2022-07-21T07:08:01;15.18;;;11.20;;
73382;SDS011;61600;48.126;11.542;2022-07-21T07:10:29;14.95;;;10.85;;
73382;SDS011;61600;48.126;11.542;2022-07-21T07:12:54;17.88;;;11.05;;
73382;SDS011;61600;48.126;11.542;2022-07-21T07:15:21;16.40;;;10.68;;
73382;SDS011;61600;48.126;11.542;2022-07-21T07:17:47;17.80;;;11.27;;
73382;SDS011;61600;48.126;11.542;2022-07-21T07:20:13;16.27;;;11.95;;
73382;SDS011;61600;48.126;11.542;2022-07-21T07:22:39;16.92;;;11.60;;
73382;SDS011;61600;48.126;11.542;2022-07-21T07:25:05;16.17;;;12.05;;
73382;SDS011;61600;48.126;11.542;2022-07-21T07:27:31;16.77;;;10.32;;
73382;SDS011;61600;48.126;11.542;2022-07-21T07:29:56;15.07;;;10.48;;
73382;SDS011;61600;48.126;11.542;2022-07-21T07:32:22;18.48;;;11.43;;
73382;SDS011;61600;48.126;11.542;2022-07-21T07:34:48;13.88;;;10.35;;
73382;SDS011;61600;48.126;11.542;2022-07-21T07:37:14;15.63;;;10.65;;
73382;SDS011;61600;48.126;11.542;2022-07-21T07:39:39;20.10;;;11.05;;
73382;SDS011;61600;48.126;11.542;2022-07-21T07:42:06;12.07;;;9.48;;
73382;SDS011;61600;48.126;11.542;2022-07-21T07:44:32;16.13;;;10.05;;
73382;SDS011;61600;48.126;11.542;2022-07-21T07:46:58;13.85;;;10.05;;
73382;SDS011;61600;48.126;11.542;2022-07-21T07:49:30;13.98;;;9.32;;
73382;SDS011;61600;48.126;11.542;2022-07-21T07:51:57;15.05;;;9.50;;
73382;SDS011;61600;48.126;11.542;2022-07-21T07:54:23;13.50;;;10.20;;
73382;SDS011;61600;48.126;11.542;2022-07-21T07:56:49;12.40;;;9.77;;
73382;SDS011;61600;48.126;11.542;2022-07-21T08:01:42;15.77;;;11.18;;
73382;SDS011;61600;48.126;11.542;2022-07-21T08:04:07;17.75;;;10.75;;
73382;SDS011;61600;48.126;11.542;2022-07-21T08:06:33;13.30;;;9.52;;
73382;SDS011;61600;48.126;11.542;2022-07-21T08:08:59;17.58;;;11.18;;
73382;SDS011;61600;48.126;11.542;2022-07-21T08:11:25;14.60;;;10.88;;
73382;SDS011;61600;48.126;11.542;2022-07-21T08:13:51;16.10;;;10.82;;
73382;SDS011;61600;48.126;11.542;2022-07-21T08:18:43;15.40;;;10.43;;
73382;SDS011;61600;48.126;11.542;2022-07-21T08:21:09;13.38;;;9.45;;
73382;SDS011;61600;48.126;11.542;2022-07-21T08:23:35;16.85;;;10.63;;
73382;SDS011;61600;48.126;11.542;2022-07-21T08:26:01;18.77;;;11.55;;
73382;SDS011;61600;48.126;11.542;2022-07-21T08:28:27;16.50;;;10.48;;
73382;SDS011;61600;48.126;11.542;2022-07-21T08:30:53;15.15;;;9.65;;
73382;SDS011;61600;48.126;11.542;2022-07-21T08:33:19;12.32;;;10.07;;
73382;SDS011;61600;48.126;11.542;2022-07-21T08:35:45;17.23;;;10.88;;
73382;SDS011;61600;48.126;11.542;2022-07-21T08:38:10;14.82;;;10.18;;
73382;SDS011;61600;48.126;11.542;2022-07-21T08:40:38;18.33;;;10.82;;
73382;SDS011;61600;48.126;11.542;2022-07-21T08:43:06;14.23;;;10.45;;
73382;SDS011;61600;48.126;11.542;2022-07-21T08:45:34;13.27;;;9.90;;
73382;SDS011;61600;48.126;11.542;2022-07-21T08:48:01;13.63;;;10.25;;
73382;SDS011;61600;48.126;11.542;2022-07-21T08:50:30;15.13;;;10.98;;
73382;SDS011;61600;48.126;11.542;2022-07-21T08:52:57;16.63;;;11.10;;
73382;SDS011;61600;48.126;11.542;2022-07-21T08:55:30;15.82;;;9.50;;
73382;SDS011;61600;48.126;11.542;2022-07-21T08:57:57;13.25;;;8.73;;
73382;SDS011;61600;48.126;11.542;2022-07-21T09:00:23;12.00;;;8.98;;
73382;SDS011;61600;48.126;11.542;2022-07-21T09:02:49;12.93;;;9.10;;
73382;SDS011;61600;48.126;11.542;2022-07-21T09:05:15;15.20;;;9.27;;
73382;SDS011;61600;48.126;11.542;2022-07-21T09:10:21;14.30;;;9.10;;
73382;SDS011;61600;48.126;11.542;2022-07-21T09:12:52;13.20;;;9.13;;
73382;SDS011;61600;48.126;11.542;2022-07-21T09:15:20;13.07;;;9.20;;
73382;SDS011;61600;48.126;11.542;2022-07-21T09:18:08;14.00;;;9.18;;
73382;SDS011;61600;48.126;11.542;2022-07-21T09:20:36;13.10;;;8.77;;
73382;SDS011;61600;48.126;11.542;2022-07-21T09:23:10;16.58;;;9.07;;
73382;SDS011;61600;48.126;11.542;2022-07-21T09:25:45;13.98;;;9.18;;
73382;SDS011;61600;48.126;11.542;2022-07-21T09:33:41;16.75;;;9.27;;
73382;SDS011;61600;48.126;11.542;2022-07-21T09:36:18;15.68;;;10.32;;
73382;SDS011;61600;48.126;11.542;2022-07-21T09:41:18;16.38;;;9.98;;
73382;SDS011;61600;48.126;11.542;2022-07-21T09:43:47;17.75;;;10.35;;
73382;SDS011;61600;48.126;11.542;2022-07-21T09:46:16;13.35;;;9.55;;
73382;SDS011;61600;48.126;11.542;2022-07-21T09:48:44;12.38;;;10.27;;
73382;SDS011;61600;48.126;11.542;2022-07-21T09:56:24;18.40;;;10.77;;
73382;SDS011;61600;48.126;11.542;2022-07-21T09:58:53;17.17;;;11.73;;
73382;SDS011;61600;48.126;11.542;2022-07-21T10:01:19;13.63;;;10.82;;
73382;SDS011;61600;48.126;11.542;2022-07-21T10:03:46;15.07;;;10.30;;
73382;SDS011;61600;48.126;11.542;2022-07-21T10:06:14;16.25;;;11.15;;
73382;SDS011;61600;48.126;11.542;2022-07-21T10:08:41;15.43;;;10.10;;
73382;SDS011;61600;48.126;11.542;2022-07-21T10:11:08;16.38;;;10.60;;
73382;SDS011;61600;48.126;11.542;2022-07-21T10:13:33;14.93;;;10.27;;
73382;SDS011;61600;48.126;11.542;2022-07-21T10:16:00;18.02;;;10.23;;
73382;SDS011;61600;48.126;11.542;2022-07-21T10:18:26;15.15;;;10.10;;
73382;SDS011;61600;48.126;11.542;2022-07-21T10:20:57;18.92;;;12.32;;
73382;SDS011;61600;48.126;11.542;2022-07-21T10:23:40;16.52;;;10.80;;
73382;SDS011;61600;48.126;11.542;2022-07-21T10:26:07;14.75;;;10.73;;
73382;SDS011;61600;48.126;11.542;2022-07-21T10:28:34;15.48;;;11.25;;
73382;SDS011;61600;48.126;11.542;2022-07-21T10:31:12;14.90;;;11.50;;
73382;SDS011;61600;48.126;11.542;2022-07-21T10:36:11;15.48;;;10.27;;
73382;SDS011;61600;48.126;11.542;2022-07-21T10:41:40;14.57;;;10.70;;
73382;SDS011;61600;48.126;11.542;2022-07-21T10:46:59;15.90;;;11.18;;
73382;SDS011;61600;48.126;11.542;2022-07-21T10:49:44;15.85;;;10.43;;
73382;SDS011;61600;48.126;11.542;2022-07-21T10:57:35;15.00;;;10.02;;
73382;SDS011;61600;48.126;11.542;2022-07-21T11:00:22;13.32;;;9.65;;
73382;SDS011;61600;48.126;11.542;2022-07-21T11:03:00;12.48;;;9.10;;
73382;SDS011;61600;48.126;11.542;2022-07-21T11:05:28;14.00;;;10.20;;
73382;SDS011;61600;48.126;11.542;2022-07-21T11:08:10;12.52;;;8.85;;
73382;SDS011;61600;48.126;11.542;2022-07-21T11:10:43;13.75;;;9.32;;
73382;SDS011;61600;48.126;11.542;2022-07-21T11:13:11;13.27;;;10.05;;
73382;SDS011;61600;48.126;11.542;2022-07-21T11:18:10;15.20;;;10.48;;
73382;SDS011;61600;48.126;11.542;2022-07-21T11:20:36;16.48;;;11.02;;
73382;SDS011;61600;48.126;11.542;2022-07-21T11:23:02;15.07;;;11.20;;
73382;SDS011;61600;48.126;11.542;2022-07-21T11:25:29;15.75;;;11.25;;
73382;SDS011;61600;48.126;11.542;2022-07-21T11:30:20;13.63;;;10.65;;
73382;SDS011;61600;48.126;11.542;2022-07-21T11:32:47;15.18;;;10.68;;
73382;SDS011;61600;48.126;11.542;2022-07-21T11:35:13;16.80;;;12.35;;
73382;SDS011;61600;48.126;11.542;2022-07-21T11:37:40;16.50;;;12.13;;
73382;SDS011;61600;48.126;11.542;2022-07-21T11:40:12;14.65;;;10.70;;
73382;SDS011;61600;48.126;11.542;2022-07-21T11:42:44;14.98;;;10.23;;
73382;SDS011;61600;48.126;11.542;2022-07-21T11:45:12;15.73;;;9.57;;
73382;SDS011;61600;48.126;11.542;2022-07-21T11:47:39;13.40;;;9.02;;
73382;SDS011;61600;48.126;11.542;2022-07-21T11:50:06;14.52;;;9.77;;
73382;SDS011;61600;48.126;11.542;2022-07-21T11:52:35;14.35;;;10.43;;
73382;SDS011;61600;48.126;11.542;2022-07-21T11:55:03;13.85;;;9.95;;
73382;SDS011;61600;48.126;11.542;2022-07-21T11:57:32;16.55;;;11.38;;
73382;SDS011;61600;48.126;11.542;2022-07-21T11:59:58;13.07;;;9.77;;
73382;SDS011;61600;48.126;11.542;2022-07-21T12:04:56;13.52;;;9.35;;
73382;SDS011;61600;48.126;11.542;2022-07-21T12:07:24;17.10;;;10.63;;
73382;SDS011;61600;48.126;11.542;2022-07-21T12:09:58;14.10;;;10.40;;
73382;SDS011;61600;48.126;11.542;2022-07-21T12:12:37;12.60;;;9.63;;
73382;SDS011;61600;48.126;11.542;2022-07-21T12:15:10;14.48;;;9.57;;
73382;SDS011;61600;48.126;11.542;2022-07-21T12:17:37;15.38;;;8.93;;
73382;SDS011;61600;48.126;11.542;2022-07-21T12:20:05;13.02;;;9.05;;
73382;SDS011;61600;48.126;11.542;2022-07-21T12:22:33;13.02;;;9.25;;
73382;SDS011;61600;48.126;11.542;2022-07-21T12:25:03;15.18;;;10.20;;
73382;SDS011;61600;48.126;11.542;2022-07-21T12:27:31;17.15;;;9.90;;
73382;SDS011;61600;48.126;11.542;2022-07-21T12:29:57;15.18;;;9.90;;
73382;SDS011;61600;48.126;11.542;2022-07-21T12:32:39;14.57;;;9.77;;
73382;SDS011;61600;48.126;11.542;2022-07-21T12:35:18;13.68;;;8.75;;
73382;SDS011;61600;48.126;11.542;2022-07-21T12:37:58;12.57;;;9.07;;
73382;SDS011;61600;48.126;11.542;2022-07-21T12:40:25;12.18;;;9.45;;
73382;SDS011;61600;48.126;11.542;2022-07-21T12:43:02;12.35;;;9.25;;
73382;SDS011;61600;48.126;11.542;2022-07-21T12:45:29;13.75;;;9.25;;
73382;SDS011;61600;48.126;11.542;2022-07-21T12:48:05;10.95;;;8.93;;
73382;SDS011;61600;48.126;11.542;2022-07-21T12:50:32;11.52;;;8.32;;
73382;SDS011;61600;48.126;11.542;2022-07-21T12:52:59;12.90;;;9.45;;
73382;SDS011;61600;48.126;11.542;2022-07-21T12:55:25;13.52;;;9.00;;
73382;SDS011;61600;48.126;11.542;2022-07-21T12:57:51;12.18;;;8.68;;
73382;SDS011;61600;48.126;11.542;2022-07-21T13:00:16;14.07;;;9.32;;
73382;SDS011;61600;48.126;11.542;2022-07-21T13:02:49;11.73;;;9.70;;
73382;SDS011;61600;48.126;11.542;2022-07-21T13:05:16;12.38;;;8.82;;
73382;SDS011;61600;48.126;11.542;2022-07-21T13:07:43;14.00;;;8.73;;
73382;SDS011;61600;48.126;11.542;2022-07-21T13:10:09;13.63;;;9.60;;
73382;SDS011;61600;48.126;11.542;2022-07-21T13:12:35;12.82;;;8.80;;
73382;SDS011;61600;48.126;11.542;2022-07-21T13:15:01;13.80;;;9.60;;
73382;SDS011;61600;48.126;11.542;2022-07-21T13:17:27;12.82;;;9.32;;
73382;SDS011;61600;48.126;11.542;2022-07-21T13:19:53;13.25;;;9.98;;
73382;SDS011;61600;48.126;11.542;2022-07-21T13:22:21;16.35;;;10.73;;
73382;SDS011;61600;48.126;11.542;2022-07-21T13:24:47;13.93;;;10.00;;
73382;SDS011;61600;48.126;11.542;2022-07-21T13:27:13;15.40;;;9.77;;
73382;SDS011;61600;48.126;11.542;2022-07-21T13:29:38;14.82;;;10.70;;
73382;SDS011;61600;48.126;11.542;2022-07-21T13:32:06;13.55;;;10.32;;
73382;SDS011;61600;48.126;11.542;2022-07-21T13:34:32;13.27;;;9.63;;
73382;SDS011;61600;48.126;11.542;2022-07-21T13:36:59;13.80;;;10.35;;
73382;SDS011;61600;48.126;11.542;2022-07-21T13:39:24;16.75;;;10.48;;
73382;SDS011;61600;48.126;11.542;2022-07-21T13:41:52;14.57;;;9.90;;
73382;SDS011;61600;48.126;11.542;2022-07-21T13:44:18;15.20;;;10.35;;
73382;SDS011;61600;48.126;11.542;2022-07-21T13:46:44;16.88;;;11.70;;
73382;SDS011;61600;48.126;11.542;2022-07-21T13:49:09;16.63;;;11.13;;
73382;SDS011;61600;48.126;11.542;2022-07-21T13:51:35;16.25;;;11.15;;
73382;SDS011;61600;48.126;11.542;2022-07-21T13:54:01;14.00;;;11.18;;
73382;SDS011;61600;48.126;11.542;2022-07-21T13:56:27;17.65;;;10.93;;
73382;SDS011;61600;48.126;11.542;2022-07-21T13:58:52;12.70;;;9.65;;
73382;SDS011;61600;48.126;11.542;2022-07-21T14:01:18;14.20;;;9.95;;
73382;SDS011;61600;48.126;11.542;2022-07-21T14:03:44;14.20;;;9.50;;
73382;SDS011;61600;48.126;11.542;2022-07-21T14:06:11;13.73;;;9.93;;
73382;SDS011;61600;48.126;11.542;2022-07-21T14:08:37;17.38;;;10.50;;
73382;SDS011;61600;48.126;11.542;2022-07-21T14:11:04;12.40;;;9.38;;
73382;SDS011;61600;48.126;11.542;2022-07-21T14:13:31;13.70;;;9.73;;
73382;SDS011;61600;48.126;11.542;2022-07-21T14:15:57;13.90;;;10.15;;
73382;SDS011;61600;48.126;11.542;2022-07-21T14:18:23;15.13;;;10.40;;
73382;SDS011;61600;48.126;11.542;2022-07-21T14:20:49;13.13;;;10.02;;
73382;SDS011;61600;48.126;11.542;2022-07-21T14:23:20;14.70;;;9.73;;
73382;SDS011;61600;48.126;11.542;2022-07-21T14:25:47;13.70;;;10.02;;
73382;SDS011;61600;48.126;11.542;2022-07-21T14:28:15;12.32;;;9.70;;
73382;SDS011;61600;48.126;11.542;2022-07-21T14:30:41;15.20;;;10.45;;
73382;SDS011;61600;48.126;11.542;2022-07-21T14:33:07;13.25;;;10.15;;
73382;SDS011;61600;48.126;11.542;2022-07-21T14:35:33;12.98;;;8.77;;
73382;SDS011;61600;48.126;11.542;2022-07-21T14:38:00;15.13;;;9.45;;
73382;SDS011;61600;48.126;11.542;2022-07-21T14:40:26;15.90;;;11.13;;
73382;SDS011;61600;48.126;11.542;2022-07-21T14:42:52;13.40;;;10.27;;
73382;SDS011;61600;48.126;11.542;2022-07-21T14:47:44;15.43;;;9.82;;
73382;SDS011;61600;48.126;11.542;2022-07-21T14:50:11;13.45;;;9.65;;
73382;SDS011;61600;48.126;11.542;2022-07-21T14:52:37;12.38;;;9.50;;
73382;SDS011;61600;48.126;11.542;2022-07-21T14:55:04;12.05;;;9.18;;
73382;SDS011;61600;48.126;11.542;2022-07-21T14:57:30;14.93;;;10.00;;
73382;SDS011;61600;48.126;11.542;2022-07-21T14:59:56;16.98;;;9.07;;
73382;SDS011;61600;48.126;11.542;2022-07-21T15:02:22;11.05;;;8.52;;
73382;SDS011;61600;48.126;11.542;2022-07-21T15:04:48;16.20;;;8.73;;
73382;SDS011;61600;48.126;11.542;2022-07-21T15:07:14;10.88;;;9.13;;
73382;SDS011;61600;48.126;11.542;2022-07-21T15:09:40;11.57;;;8.85;;
73382;SDS011;61600;48.126;11.542;2022-07-21T15:12:06;15.23;;;9.35;;
73382;SDS011;61600;48.126;11.542;2022-07-21T15:14:31;10.52;;;8.65;;
73382;SDS011;61600;48.126;11.542;2022-07-21T15:16:57;11.25;;;8.75;;
73382;SDS011;61600;48.126;11.542;2022-07-21T15:19:23;12.48;;;9.10;;